Time;durP1;ratioP1;P1;durP2;ratioP2;P2;SDS_P1;SDS_P2;PMS_P1;PMS_P2;Temp;Humidity;BMP_temperature;BMP_pressure;BME280_temperature;BME280_humidity;BME280_pressure;Samples;Min_cycle;Max_cycle;Signal;HPM_P1;HPM_P2
2022/04/04 00:02:30;;;;;;;;;;;6.30;97.80;;;;;;6129404;23;19921;-83
2022/04/04 00:05:03;;;;;;;;;;;6.30;98.00;;;;;;6139956;23;19936;-83
2022/04/04 00:07:37;;;;;;;;;;;6.40;98.10;;;;;;6150178;23;19924;-83
2022/04/04 00:10:07;;;;;;;;;;;6.20;98.30;;;;;;6152125;23;19935;-84
2022/04/04 00:12:45;;;;;;;;;;;8.10;99.10;;;;;;6093256;23;19921;-84
2022/04/04 00:15:33;;;;;;;;;;;6.40;99.30;;;;;;6118117;23;19927;-83
2022/04/04 00:18:14;;;;;;;;;;;6.30;98.80;;;;;;6141869;23;19925;-84
2022/04/04 00:21:04;;;;;;;;;;;6.20;98.80;;;;;;6149385;23;19927;-84
2022/04/04 00:24:27;;;;;;;;;;;;;;;;;;;;;
2022/04/04 00:27:28;;;;;;;;;;;6.10;99.90;;;;;;6141390;23;19925;-84
2022/04/04 00:30:21;;;;;;;;;;;8.10;99.60;;;;;;6140715;23;19925;-84
2022/04/04 00:33:02;;;;;;;;;;;6.20;99.20;;;;;;6150784;23;19925;-83
2022/04/04 00:35:42;;;;;;;;;;;7.50;99.60;;;;;;6126948;23;19925;-82
2022/04/04 00:38:59;;;;;;;;;;;7.90;99.90;;;;;;6109881;23;19925;-84
2022/04/04 00:42:08;;;;;;;;;;;;;;;;;;;;;
2022/04/04 00:44:45;;;;;;;;;;;6.20;99.70;;;;;;6143685;23;20324;-84
2022/04/04 00:47:29;;;;;;;;;;;6.20;99.90;;;;;;6142862;23;19931;-84
2022/04/04 00:50:30;;;;;;;;;;;6.10;99.90;;;;;;6139177;23;19935;-84
2022/04/04 00:53:26;;;;;;;;;;;7.10;99.90;;;;;;6140279;23;19927;-84
2022/04/04 00:56:36;;;;;;;;;;;6.00;99.90;;;;;;6137486;23;19947;-84
2022/04/04 00:59:15;;;;;;;;;;;6.10;99.90;;;;;;6137423;23;19925;-83
2022/04/04 01:01:55;;;;;;;;;;;5.80;99.90;;;;;;6114912;23;19931;-84
2022/04/04 01:04:48;;;;;;;;;;;6.10;99.90;;;;;;6100109;23;20361;-83
2022/04/04 01:07:52;;;;;;;;;;;;;;;;;;;;;
2022/04/04 01:10:27;;;;;;;;;;;8.20;99.90;;;;;;6115839;23;20318;-84
2022/04/04 01:13:11;;;;;;;;;;;6.30;99.90;;;;;;6117485;23;20287;-84
2022/04/04 01:15:42;;;;;;;;;;;7.50;99.90;;;;;;6168057;23;19934;-84
2022/04/04 01:18:14;;;;;;;;;;;6.20;99.90;;;;;;6167766;23;19921;-84
2022/04/04 01:20:58;;;;;;;;;;;6.20;99.90;;;;;;6095799;23;19920;-84
2022/04/04 01:23:43;;;;;;;;;;;5.10;99.90;;;;;;6116995;23;19927;-84
2022/04/04 01:26:34;;;;;;;;;;;6.40;99.90;;;;;;6149829;23;19927;-84
2022/04/04 01:29:16;;;;;;;;;;;6.60;99.90;;;;;;6140965;23;19925;-84
2022/04/04 01:31:50;;;;;;;;;;;6.40;99.90;;;;;;6118995;23;19929;-84
2022/04/04 01:34:32;;;;;;;;;;;6.50;99.90;;;;;;6176629;23;19921;-84
2022/04/04 01:37:07;;;;;;;;;;;6.60;99.90;;;;;;6143952;23;19935;-84
2022/04/04 01:39:47;;;;;;;;;;;6.30;99.90;;;;;;6176559;23;19927;-84
2022/04/04 01:42:21;;;;;;;;;;;6.30;99.90;;;;;;6141881;23;19920;-84
2022/04/04 01:44:58;;;;;;;;;;;6.30;99.90;;;;;;6144281;23;19927;-84
2022/04/04 01:47:32;;;;;;;;;;;6.30;99.90;;;;;;6130031;23;19927;-84
2022/04/04 01:50:16;;;;;;;;;;;7.70;99.90;;;;;;6174641;23;19920;-84
2022/04/04 01:53:25;;;;;;;;;;;8.40;99.90;;;;;;6182546;23;19931;-85
2022/04/04 01:55:41;;;;;;;;;;;6.40;99.90;;;;;;6170437;23;19924;-85
2022/04/04 01:58:13;;;;;;;;;;;5.10;99.90;;;;;;6173194;23;19930;-85
2022/04/04 02:00:43;;;;;;;;;;;6.30;99.90;;;;;;6119879;23;19926;-85
2022/04/04 02:03:16;;;;;;;;;;;6.30;99.90;;;;;;6120686;23;19946;-84
2022/04/04 02:05:52;;;;;;;;;;;6.40;99.90;;;;;;6171250;23;20254;-84
2022/04/04 02:09:04;;;;;;;;;;;6.50;99.90;;;;;;6153221;23;19921;-84
2022/04/04 02:11:43;;;;;;;;;;;6.30;99.90;;;;;;6170691;23;19920;-84
2022/04/04 02:14:17;;;;;;;;;;;6.40;99.90;;;;;;6119075;23;19920;-84
2022/04/04 02:16:59;;;;;;;;;;;6.40;99.90;;;;;;6180079;23;19935;-84
2022/04/04 02:19:47;;;;;;;;;;;6.60;99.90;;;;;;6171867;23;19921;-83
2022/04/04 02:22:17;;;;;;;;;;;6.40;99.90;;;;;;6143234;23;19927;-84
2022/04/04 02:25:33;;;;;;;;;;;;;;;;;;;;;
2022/04/04 02:28:20;;;;;;;;;;;6.30;99.90;;;;;;6140429;23;19921;-84
2022/04/04 02:30:58;;;;;;;;;;;5.00;99.90;;;;;;6165296;23;19931;-83
2022/04/04 02:33:36;;;;;;;;;;;6.70;99.90;;;;;;6147287;23;19925;-84
2022/04/04 02:36:14;;;;;;;;;;;6.50;99.90;;;;;;6143310;23;19924;-84
2022/04/04 02:38:45;;;;;;;;;;;6.20;99.90;;;;;;6155560;23;19924;-84
2022/04/04 02:41:19;;;;;;;;;;;6.30;99.90;;;;;;6180984;23;19946;-84
2022/04/04 02:43:55;;;;;;;;;;;6.30;99.90;;;;;;6123139;23;19931;-83
2022/04/04 02:46:31;;;;;;;;;;;6.30;99.90;;;;;;6156022;23;19928;-85
2022/04/04 02:49:04;;;;;;;;;;;6.90;99.90;;;;;;6094322;23;19943;-83
2022/04/04 02:51:48;;;;;;;;;;;6.40;99.90;;;;;;6169766;23;19921;-84
2022/04/04 02:54:36;;;;;;;;;;;6.40;99.90;;;;;;6142262;23;19929;-84
2022/04/04 02:57:31;;;;;;;;;;;6.30;99.90;;;;;;6141371;23;20243;-84
2022/04/04 03:00:06;;;;;;;;;;;6.70;99.90;;;;;;6169196;23;19921;-84
2022/04/04 03:02:37;;;;;;;;;;;6.50;99.90;;;;;;6169568;23;19921;-85
2022/04/04 03:05:18;;;;;;;;;;;6.50;99.90;;;;;;6137116;23;19932;-84
2022/04/04 03:07:50;;;;;;;;;;;6.40;99.90;;;;;;6135925;23;19921;-85
2022/04/04 03:10:39;;;;;;;;;;;6.50;99.90;;;;;;6097405;23;19927;-83
2022/04/04 03:13:09;;;;;;;;;;;5.40;99.90;;;;;;6090157;23;19921;-84
2022/04/04 03:15:47;;;;;;;;;;;6.70;99.90;;;;;;6115517;23;19931;-83
2022/04/04 03:18:36;;;;;;;;;;;6.60;99.90;;;;;;6137537;23;19924;-84
2022/04/04 03:21:17;;;;;;;;;;;6.60;99.90;;;;;;6172942;23;19940;-83
2022/04/04 03:24:00;;;;;;;;;;;;;;;;;;;;;
2022/04/04 03:26:52;;;;;;;;;;;6.60;99.90;;;;;;6138882;23;19925;-83
2022/04/04 03:29:22;;;;;;;;;;;7.00;99.90;;;;;;6142842;23;19932;-84
2022/04/04 03:32:01;;;;;;;;;;;;;;;;;;;;;
2022/04/04 03:34:44;;;;;;;;;;;8.40;99.90;;;;;;6138622;23;19920;-84
2022/04/04 03:37:16;;;;;;;;;;;6.60;99.90;;;;;;6172900;23;19931;-85
2022/04/04 03:39:47;;;;;;;;;;;6.70;99.90;;;;;;6139019;23;19925;-84
2022/04/04 03:42:25;;;;;;;;;;;7.00;99.90;;;;;;6150206;23;19931;-84
2022/04/04 03:45:06;;;;;;;;;;;6.80;99.90;;;;;;6094470;23;19925;-83
2022/04/04 03:47:46;;;;;;;;;;;6.70;99.90;;;;;;6142085;23;19925;-84
2022/04/04 03:50:24;;;;;;;;;;;6.30;99.90;;;;;;6151269;23;19920;-84
2022/04/04 03:53:16;;;;;;;;;;;6.80;99.90;;;;;;6139930;23;19921;-83
2022/04/04 03:55:55;;;;;;;;;;;6.70;99.90;;;;;;6174138;23;19925;-84
2022/04/04 03:58:26;;;;;;;;;;;6.70;99.90;;;;;;6150957;23;19920;-84
2022/04/04 04:01:10;;;;;;;;;;;6.70;99.90;;;;;;6141388;23;20282;-84
2022/04/04 04:04:10;;;;;;;;;;;5.70;99.90;;;;;;6169401;23;19928;-85
2022/04/04 04:06:41;;;;;;;;;;;6.70;99.90;;;;;;6111860;23;19921;-86
2022/04/04 04:09:33;;;;;;;;;;;6.80;99.90;;;;;;6112646;23;19931;-83
2022/04/04 04:12:11;;;;;;;;;;;6.70;99.90;;;;;;6108595;23;19921;-85
2022/04/04 04:14:48;;;;;;;;;;;6.70;99.90;;;;;;6119297;23;19921;-85
2022/04/04 04:17:46;;;;;;;;;;;6.00;99.90;;;;;;6092497;23;19927;-84
2022/04/04 04:20:32;;;;;;;;;;;6.40;99.90;;;;;;6115386;23;19928;-84
2022/04/04 04:23:13;;;;;;;;;;;6.40;99.90;;;;;;6119963;23;19928;-84
2022/04/04 04:26:00;;;;;;;;;;;7.60;99.90;;;;;;6122123;23;19921;-84
2022/04/04 04:28:58;;;;;;;;;;;6.30;99.90;;;;;;6112436;23;19932;-84
2022/04/04 04:31:47;;;;;;;;;;;6.90;99.90;;;;;;6109108;23;19925;-84
2022/04/04 04:34:38;;;;;;;;;;;;;;;;;;;;;
2022/04/04 04:37:12;;;;;;;;;;;6.20;99.90;;;;;;6120105;23;19936;-85
2022/04/04 04:40:01;;;;;;;;;;;6.20;99.90;;;;;;6120946;23;19921;-84
2022/04/04 04:43:02;;;;;;;;;;;6.50;99.90;;;;;;6112170;23;19956;-84
2022/04/04 04:45:32;;;;;;;;;;;6.10;99.90;;;;;;6144166;23;19928;-84
2022/04/04 04:48:12;;;;;;;;;;;4.50;99.90;;;;;;6117740;23;19922;-84
2022/04/04 04:50:47;;;;;;;;;;;6.20;99.90;;;;;;6108907;23;19925;-84
2022/04/04 04:53:36;;;;;;;;;;;;;;;;;;;;;
2022/04/04 04:56:11;;;;;;;;;;;6.30;99.90;;;;;;6113177;23;20239;-83
2022/04/04 04:58:52;;;;;;;;;;;6.10;99.90;;;;;;6064487;23;19921;-84
2022/04/04 05:01:20;;;;;;;;;;;5.40;99.90;;;;;;6111695;23;19925;-84
2022/04/04 05:03:52;;;;;;;;;;;6.10;99.90;;;;;;6117848;23;19922;-85
2022/04/04 05:06:21;;;;;;;;;;;6.20;99.90;;;;;;6135221;23;19931;-83
2022/04/04 05:08:50;;;;;;;;;;;6.20;99.90;;;;;;6138855;23;19928;-85
2022/04/04 05:11:18;;;;;;;;;;;6.00;99.90;;;;;;6113146;23;19943;-84
2022/04/04 05:13:46;;;;;;;;;;;6.00;99.90;;;;;;6138484;23;19921;-83
2022/04/04 05:16:14;;;;;;;;;;;6.00;99.90;;;;;;6139408;23;19925;-84
2022/04/04 05:18:51;;;;;;;;;;;6.10;99.90;;;;;;6164249;23;19920;-84
2022/04/04 05:21:20;;;;;;;;;;;6.40;99.90;;;;;;6138792;23;19921;-83
2022/04/04 05:23:55;;;;;;;;;;;6.40;99.90;;;;;;6143484;23;19925;-83
2022/04/04 05:26:25;;;;;;;;;;;7.10;99.90;;;;;;6138288;23;20366;-83
2022/04/04 05:28:57;;;;;;;;;;;5.90;99.90;;;;;;6137685;23;19921;-83
2022/04/04 05:31:31;;;;;;;;;;;6.10;99.90;;;;;;6140237;23;19929;-84
2022/04/04 05:34:07;;;;;;;;;;;6.30;99.90;;;;;;6150609;23;20267;-83
2022/04/04 05:36:36;;;;;;;;;;;6.20;99.90;;;;;;6137964;23;19927;-82
2022/04/04 05:39:06;;;;;;;;;;;6.00;99.90;;;;;;6143317;23;19921;-82
2022/04/04 05:41:36;;;;;;;;;;;6.00;99.90;;;;;;6150172;23;19921;-83
2022/04/04 05:44:06;;;;;;;;;;;7.30;99.90;;;;;;6175070;23;19925;-83
2022/04/04 05:46:36;;;;;;;;;;;5.90;99.90;;;;;;6139939;23;19917;-83
2022/04/04 05:49:05;;;;;;;;;;;5.90;99.90;;;;;;6114873;23;19921;-82
2022/04/04 05:51:35;;;;;;;;;;;5.90;99.90;;;;;;6150568;23;20229;-83
2022/04/04 05:54:27;;;;;;;;;;;6.50;99.90;;;;;;6149759;23;19921;-83
2022/04/04 05:56:59;;;;;;;;;;;5.80;99.90;;;;;;6150751;23;19921;-83
2022/04/04 05:59:27;;;;;;;;;;;6.10;99.90;;;;;;6138266;23;19921;-84
2022/04/04 06:01:56;;;;;;;;;;;5.90;99.90;;;;;;6139158;23;19931;-83
2022/04/04 06:04:24;;;;;;;;;;;6.00;99.90;;;;;;6141214;23;19927;-80
2022/04/04 06:06:53;;;;;;;;;;;5.80;99.90;;;;;;6178328;23;19921;-84
2022/04/04 06:09:20;;;;;;;;;;;5.80;99.90;;;;;;6179600;23;19927;-83
2022/04/04 06:11:50;;;;;;;;;;;6.00;99.90;;;;;;6179953;23;19920;-83
2022/04/04 06:14:20;;;;;;;;;;;5.80;99.90;;;;;;6123485;23;19927;-82
2022/04/04 06:16:49;;;;;;;;;;;5.90;99.90;;;;;;6168528;23;19931;-83
2022/04/04 06:19:18;;;;;;;;;;;6.00;99.90;;;;;;6143794;23;19930;-84
2022/04/04 06:21:47;;;;;;;;;;;5.90;99.90;;;;;;6173626;23;19931;-84
2022/04/04 06:24:15;;;;;;;;;;;6.10;99.90;;;;;;6144749;23;19930;-83
2022/04/04 06:26:44;;;;;;;;;;;5.90;99.90;;;;;;6179715;23;19928;-83
2022/04/04 06:29:12;;;;;;;;;;;8.20;99.90;;;;;;6143070;23;19927;-81
2022/04/04 06:31:46;;;;;;;;;;;5.90;99.90;;;;;;6118959;23;19921;-82
2022/04/04 06:34:15;;;;;;;;;;;5.10;99.90;;;;;;6120100;23;19931;-84
2022/04/04 06:36:44;;;;;;;;;;;6.00;99.90;;;;;;6177165;23;19928;-82
2022/04/04 06:39:15;;;;;;;;;;;5.60;99.90;;;;;;6119358;23;19920;-82
2022/04/04 06:41:43;;;;;;;;;;;5.60;99.90;;;;;;6155512;23;19939;-83
2022/04/04 06:44:12;;;;;;;;;;;6.10;99.90;;;;;;6178508;23;19925;-82
2022/04/04 06:46:41;;;;;;;;;;;6.20;99.90;;;;;;6118318;23;19924;-82
2022/04/04 06:49:31;;;;;;;;;;;6.10;99.90;;;;;;6165985;23;19931;-82
2022/04/04 06:52:05;;;;;;;;;;;6.00;99.90;;;;;;6143425;23;20362;-82
2022/04/04 06:54:39;;;;;;;;;;;5.80;99.90;;;;;;6168641;23;19931;-83
2022/04/04 06:57:08;;;;;;;;;;;6.30;99.90;;;;;;6153745;23;19931;-82
2022/04/04 06:59:37;;;;;;;;;;;6.50;99.90;;;;;;6143414;23;19921;-82
2022/04/04 07:02:05;;;;;;;;;;;6.30;99.90;;;;;;6129368;23;19924;-82
2022/04/04 07:04:37;;;;;;;;;;;6.30;99.90;;;;;;6142498;23;19931;-82
2022/04/04 07:07:05;;;;;;;;;;;6.30;99.90;;;;;;6149519;23;20244;-82
2022/04/04 07:09:34;;;;;;;;;;;6.40;99.90;;;;;;6172419;23;19935;-82
2022/04/04 07:12:05;;;;;;;;;;;6.40;99.90;;;;;;6149683;23;19935;-83
2022/04/04 07:14:34;;;;;;;;;;;6.50;99.90;;;;;;6140155;23;19925;-82
2022/04/04 07:17:03;;;;;;;;;;;6.50;99.90;;;;;;6139732;23;19925;-82
2022/04/04 07:19:33;;;;;;;;;;;6.60;99.90;;;;;;6141869;23;19925;-82
2022/04/04 07:22:02;;;;;;;;;;;6.60;99.90;;;;;;6161262;23;19974;-83
2022/04/04 07:24:36;;;;;;;;;;;6.70;99.90;;;;;;6139295;23;19924;-84
2022/04/04 07:27:11;;;;;;;;;;;6.90;99.90;;;;;;6149515;23;19925;-83
2022/04/04 07:29:46;;;;;;;;;;;6.60;99.90;;;;;;6172551;23;19931;-83
2022/04/04 07:32:16;;;;;;;;;;;6.70;99.90;;;;;;6091689;23;19917;-82
2022/04/04 07:34:43;;;;;;;;;;;6.70;99.90;;;;;;6139570;23;19921;-83
2022/04/04 07:37:12;;;;;;;;;;;6.50;99.90;;;;;;6113822;23;19921;-82
2022/04/04 07:39:40;;;;;;;;;;;7.00;99.90;;;;;;6114396;23;19927;-82
2022/04/04 07:42:11;;;;;;;;;;;6.80;99.90;;;;;;6152043;23;19920;-82
2022/04/04 07:44:41;;;;;;;;;;;6.80;99.90;;;;;;6118002;23;19920;-89
2022/04/04 07:47:10;;;;;;;;;;;6.80;99.90;;;;;;6116301;23;19921;-83
2022/04/04 07:49:39;;;;;;;;;;;6.90;99.90;;;;;;6113825;23;19921;-85
2022/04/04 07:52:07;;;;;;;;;;;6.90;99.90;;;;;;6148528;23;19925;-83
2022/04/04 07:54:38;;;;;;;;;;;6.90;99.90;;;;;;6139248;23;19928;-83
2022/04/04 07:57:07;;;;;;;;;;;6.90;99.90;;;;;;6113132;23;19927;-82
2022/04/04 07:59:36;;;;;;;;;;;6.90;99.90;;;;;;6149190;23;20405;-83
2022/04/04 08:02:05;;;;;;;;;;;6.80;99.90;;;;;;6137751;23;19925;-83
2022/04/04 08:04:34;;;;;;;;;;;7.00;99.90;;;;;;6089281;23;19921;-83
2022/04/04 08:07:03;;;;;;;;;;;7.10;99.90;;;;;;6138810;23;19935;-82
2022/04/04 08:09:31;;;;;;;;;;;7.00;99.90;;;;;;6146543;23;19931;-84
2022/04/04 08:11:59;;;;;;;;;;;7.10;99.90;;;;;;6138265;23;19937;-82
2022/04/04 08:14:27;;;;;;;;;;;7.30;99.90;;;;;;6135457;23;19925;-82
2022/04/04 08:16:56;;;;;;;;;;;7.40;99.90;;;;;;6138799;23;19931;-84
2022/04/04 08:19:25;;;;;;;;;;;7.20;99.90;;;;;;6138427;23;20308;-84
2022/04/04 08:21:53;;;;;;;;;;;7.20;99.90;;;;;;6139840;23;19921;-83
2022/04/04 08:24:22;;;;;;;;;;;7.30;99.90;;;;;;6136450;23;19927;-83
2022/04/04 08:26:51;;;;;;;;;;;7.60;99.90;;;;;;6123774;23;19925;-85
2022/04/04 08:29:19;;;;;;;;;;;7.30;99.90;;;;;;6137377;23;20633;-85
2022/04/04 08:31:48;;;;;;;;;;;7.30;99.90;;;;;;6140476;23;19938;-82
2022/04/04 08:34:16;;;;;;;;;;;7.40;99.90;;;;;;6088657;23;19924;-82
2022/04/04 08:36:44;;;;;;;;;;;7.40;99.90;;;;;;6146572;23;19924;-82
2022/04/04 08:39:12;;;;;;;;;;;7.40;99.90;;;;;;6140064;23;19921;-84
2022/04/04 08:41:42;;;;;;;;;;;7.40;99.90;;;;;;6140242;23;19925;-83
2022/04/04 08:44:14;;;;;;;;;;;7.50;99.90;;;;;;6139273;23;19935;-84
2022/04/04 08:46:43;;;;;;;;;;;7.50;99.90;;;;;;6140898;23;19905;-86
2022/04/04 08:49:15;;;;;;;;;;;8.10;99.90;;;;;;6139312;23;19921;-87
2022/04/04 08:51:43;;;;;;;;;;;7.60;99.90;;;;;;6140696;23;19925;-84
2022/04/04 08:54:10;;;;;;;;;;;7.80;99.90;;;;;;6149653;23;19921;-83
2022/04/04 08:56:38;;;;;;;;;;;9.10;99.90;;;;;;6174305;23;19920;-82
2022/04/04 08:59:08;;;;;;;;;;;7.70;99.90;;;;;;6149439;23;19931;-84
2022/04/04 09:01:37;;;;;;;;;;;7.80;99.90;;;;;;6114216;23;19921;-83
2022/04/04 09:04:05;;;;;;;;;;;7.40;99.90;;;;;;6144032;23;19936;-84
2022/04/04 09:06:47;;;;;;;;;;;7.80;99.90;;;;;;6167297;23;19927;-82
2022/04/04 09:09:19;;;;;;;;;;;7.70;99.90;;;;;;6145086;23;20757;-83
2022/04/04 09:12:07;;;;;;;;;;;7.90;99.90;;;;;;6119829;23;19921;-82
2022/04/04 09:14:37;;;;;;;;;;;7.70;99.90;;;;;;6144522;23;19929;-84
2022/04/04 09:17:06;;;;;;;;;;;7.80;99.90;;;;;;6179907;23;19935;-84
2022/04/04 09:19:34;;;;;;;;;;;7.80;99.90;;;;;;6142504;23;19924;-84
2022/04/04 09:22:04;;;;;;;;;;;7.90;99.90;;;;;;6167534;23;19934;-82
2022/04/04 09:24:49;;;;;;;;;;;8.10;99.90;;;;;;6141678;23;19934;-81
2022/04/04 09:27:17;;;;;;;;;;;8.00;99.90;;;;;;6165658;23;19925;-82
2022/04/04 09:29:53;;;;;;;;;;;8.00;99.90;;;;;;6170780;23;19926;-82
2022/04/04 09:32:34;;;;;;;;;;;8.10;99.90;;;;;;6143351;23;19920;-82
2022/04/04 09:35:11;;;;;;;;;;;8.20;99.90;;;;;;6170038;23;19921;-82
2022/04/04 09:37:41;;;;;;;;;;;8.20;99.90;;;;;;6142631;23;19961;-81
2022/04/04 09:40:15;;;;;;;;;;;8.20;99.90;;;;;;6166551;23;19942;-83
2022/04/04 09:42:53;;;;;;;;;;;8.20;99.90;;;;;;6153280;23;19927;-82
2022/04/04 09:45:26;;;;;;;;;;;8.30;99.90;;;;;;6143102;23;19931;-83
2022/04/04 09:48:01;;;;;;;;;;;8.30;99.90;;;;;;6145548;23;19935;-81
2022/04/04 09:50:49;;;;;;;;;;;8.30;99.90;;;;;;6169910;23;19921;-81
2022/04/04 09:53:22;;;;;;;;;;;8.40;99.90;;;;;;6169288;23;20338;-81
2022/04/04 09:55:55;;;;;;;;;;;8.40;99.90;;;;;;6177980;23;19930;-81
2022/04/04 09:58:24;;;;;;;;;;;8.40;99.90;;;;;;6152352;23;19920;-82
2022/04/04 10:00:55;;;;;;;;;;;8.40;99.90;;;;;;6140868;23;19921;-81
2022/04/04 10:03:24;;;;;;;;;;;8.40;99.90;;;;;;6144850;23;19924;-83
2022/04/04 10:05:55;;;;;;;;;;;8.50;99.90;;;;;;6145981;23;19925;-83
2022/04/04 10:08:25;;;;;;;;;;;8.50;99.90;;;;;;6142950;23;19921;-83
2022/04/04 10:10:54;;;;;;;;;;;8.40;99.90;;;;;;6178111;23;19924;-82
2022/04/04 10:13:25;;;;;;;;;;;8.70;99.90;;;;;;6179468;23;19931;-82
2022/04/04 10:15:53;;;;;;;;;;;8.10;99.90;;;;;;6179590;23;19920;-83
2022/04/04 10:18:23;;;;;;;;;;;9.10;99.90;;;;;;6170835;23;19931;-83
2022/04/04 10:21:25;;;;;;;;;;;8.90;99.90;;;;;;6146986;23;19977;-82
2022/04/04 10:23:55;;;;;;;;;;;9.00;99.90;;;;;;6111952;23;19921;-83
2022/04/04 10:26:26;;;;;;;;;;;9.10;99.90;;;;;;6139829;23;19935;-84
2022/04/04 10:29:15;;;;;;;;;;;9.20;99.90;;;;;;6146823;23;19921;-84
2022/04/04 10:31:50;;;;;;;;;;;9.20;99.90;;;;;;6139310;23;19949;-84
2022/04/04 10:34:22;;;;;;;;;;;9.40;99.90;;;;;;6164076;23;19921;-84
2022/04/04 10:36:53;;;;;;;;;;;9.50;99.90;;;;;;6112756;23;19925;-82
2022/04/04 10:39:48;;;;;;;;;;;9.60;99.90;;;;;;6137013;23;19940;-84
2022/04/04 10:42:43;;;;;;;;;;;9.60;99.90;;;;;;6133114;23;19929;-84
2022/04/04 10:45:18;;;;;;;;;;;9.60;99.90;;;;;;6140918;23;20298;-83
2022/04/04 10:47:47;;;;;;;;;;;9.80;99.90;;;;;;6113010;23;19920;-85
2022/04/04 10:50:20;;;;;;;;;;;10.00;99.90;;;;;;6139635;23;19929;-83
2022/04/04 10:52:48;;;;;;;;;;;9.90;99.90;;;;;;6149448;23;19920;-84
2022/04/04 10:55:29;;;;;;;;;;;10.00;99.90;;;;;;6114450;23;19929;-83
2022/04/04 10:57:59;;;;;;;;;;;10.10;99.90;;;;;;6139414;23;19925;-84
2022/04/04 11:00:33;;;;;;;;;;;8.70;99.90;;;;;;6139243;23;20077;-84
2022/04/04 11:03:10;;;;;;;;;;;10.20;99.90;;;;;;6151680;23;19920;-84
2022/04/04 11:09:16;;;;;;;;;;;10.30;99.90;;;;;;6133795;23;20181;-85
2022/04/04 11:11:55;;;;;;;;;;;10.90;99.90;;;;;;6115771;23;19932;-83
2022/04/04 11:14:31;;;;;;;;;;;10.40;99.90;;;;;;6146494;23;19927;-83
2022/04/04 11:17:19;;;;;;;;;;;10.50;99.90;;;;;;6111089;23;19925;-83
2022/04/04 11:19:48;;;;;;;;;;;10.60;99.90;;;;;;6111461;23;19924;-83
2022/04/04 11:22:19;;;;;;;;;;;10.70;99.90;;;;;;6146150;23;19931;-83
2022/04/04 11:24:53;;;;;;;;;;;10.80;99.90;;;;;;6110223;23;19927;-82
2022/04/04 11:27:24;;;;;;;;;;;10.80;99.90;;;;;;6112885;23;19925;-84
2022/04/04 11:29:54;;;;;;;;;;;10.80;99.90;;;;;;6134195;23;19932;-83
2022/04/04 11:32:28;;;;;;;;;;;10.80;99.90;;;;;;6088666;23;19952;-83
2022/04/04 11:35:01;;;;;;;;;;;10.80;99.90;;;;;;6123108;23;19933;-82
2022/04/04 11:37:39;;;;;;;;;;;10.80;99.90;;;;;;6111538;23;19928;-84
2022/04/04 11:40:13;;;;;;;;;;;10.80;99.90;;;;;;6097830;23;20379;-83
2022/04/04 11:42:42;;;;;;;;;;;10.90;99.90;;;;;;6138690;23;19924;-83
2022/04/04 11:45:10;;;;;;;;;;;10.90;99.90;;;;;;6148162;23;19935;-83
2022/04/04 11:47:41;;;;;;;;;;;10.90;99.90;;;;;;6113828;23;19936;-84
2022/04/04 11:50:12;;;;;;;;;;;10.90;99.90;;;;;;6110807;23;19921;-84
2022/04/04 11:52:52;;;;;;;;;;;11.10;99.90;;;;;;6114164;23;19931;-83
2022/04/04 11:55:21;;;;;;;;;;;11.20;99.90;;;;;;6138938;23;20646;-83
2022/04/04 11:57:57;;;;;;;;;;;11.30;99.90;;;;;;6088631;23;19940;-84
2022/04/04 12:00:26;;;;;;;;;;;11.30;99.90;;;;;;6146432;23;19931;-83
2022/04/04 12:02:54;;;;;;;;;;;11.30;99.90;;;;;;6138275;23;19939;-84
2022/04/04 12:05:23;;;;;;;;;;;11.20;99.90;;;;;;6121969;23;20377;-83
2022/04/04 12:07:52;;;;;;;;;;;11.20;99.90;;;;;;6111005;23;19935;-83
2022/04/04 12:10:26;;;;;;;;;;;11.40;99.90;;;;;;6147568;23;19925;-83
2022/04/04 12:13:07;;;;;;;;;;;11.40;99.90;;;;;;6139418;23;19920;-83
2022/04/04 12:15:37;;;;;;;;;;;11.40;99.90;;;;;;6113054;23;19933;-84
2022/04/04 12:18:05;;;;;;;;;;;11.50;99.90;;;;;;6116509;23;19924;-83
2022/04/04 12:20:37;;;;;;;;;;;11.70;99.90;;;;;;6143492;23;19925;-83
2022/04/04 12:25:54;;;;;;;;;;;11.60;99.90;;;;;;6110395;23;20616;-82
2022/04/04 12:28:23;;;;;;;;;;;11.60;99.90;;;;;;6111977;23;19927;-84
2022/04/04 12:30:57;;;;;;;;;;;11.60;99.90;;;;;;6139417;23;19927;-84
2022/04/04 12:33:31;;;;;;;;;;;11.60;99.90;;;;;;6112124;23;19921;-85
2022/04/04 12:36:00;;;;;;;;;;;11.60;99.90;;;;;;6139868;23;19920;-85
2022/04/04 12:38:34;;;;;;;;;;;11.70;99.90;;;;;;6139128;23;19925;-84
2022/04/04 12:41:12;;;;;;;;;;;10.80;99.90;;;;;;6141114;23;19921;-83
2022/04/04 12:43:47;;;;;;;;;;;11.70;99.90;;;;;;6114382;23;19921;-84
2022/04/04 12:46:26;;;;;;;;;;;11.80;99.90;;;;;;6090634;23;19924;-83
2022/04/04 12:49:13;;;;;;;;;;;11.80;99.90;;;;;;6112624;23;20427;-83
2022/04/04 12:51:53;;;;;;;;;;;11.90;99.90;;;;;;6089891;23;19921;-84
2022/04/04 12:54:23;;;;;;;;;;;12.00;99.90;;;;;;6113861;23;19931;-84
2022/04/04 12:59:56;;;;;;;;;;;12.10;99.90;;;;;;6083557;23;19925;-90
2022/04/04 13:02:29;;;;;;;;;;;12.20;99.90;;;;;;6008163;23;19932;-92
2022/04/04 13:05:12;;;;;;;;;;;12.20;99.90;;;;;;6053376;23;19926;-90
2022/04/04 13:07:47;;;;;;;;;;;12.30;99.90;;;;;;6052337;23;19936;-91
2022/04/04 13:10:16;;;;;;;;;;;12.40;99.90;;;;;;6027837;23;19932;-91
2022/04/04 13:12:45;;;;;;;;;;;12.40;99.90;;;;;;6005566;23;19928;-91
2022/04/04 13:15:37;;;;;;;;;;;12.30;99.90;;;;;;6048826;23;19952;-90
2022/04/04 13:18:05;;;;;;;;;;;12.40;99.90;;;;;;6051092;23;19948;-91
2022/04/04 13:20:36;;;;;;;;;;;11.30;99.90;;;;;;6028629;23;19925;-90
2022/04/04 13:23:10;;;;;;;;;;;12.40;99.90;;;;;;6028335;23;19936;-92
2022/04/04 13:25:40;;;;;;;;;;;12.50;99.90;;;;;;6029137;23;19932;-91
2022/04/04 13:28:11;;;;;;;;;;;12.50;99.90;;;;;;6028870;23;19928;-91
2022/04/04 13:30:41;;;;;;;;;;;12.50;99.90;;;;;;6053171;23;19932;-91
2022/04/04 13:33:12;;;;;;;;;;;12.50;99.90;;;;;;6004020;23;19926;-90
2022/04/04 13:35:40;;;;;;;;;;;12.60;99.90;;;;;;6029721;23;20331;-90
2022/04/04 13:38:12;;;;;;;;;;;11.70;99.90;;;;;;6031914;23;19922;-91
2022/04/04 13:40:41;;;;;;;;;;;12.60;99.90;;;;;;6026132;23;20147;-91
2022/04/04 13:43:12;;;;;;;;;;;12.60;99.90;;;;;;6024910;23;19925;-90
2022/04/04 13:45:42;;;;;;;;;;;13.10;99.90;;;;;;6049468;23;20246;-89
2022/04/04 13:48:14;;;;;;;;;;;12.80;99.90;;;;;;6053817;23;19925;-91
2022/04/04 13:50:44;;;;;;;;;;;12.80;99.90;;;;;;6047956;23;19928;-91
2022/04/04 13:53:14;;;;;;;;;;;12.90;99.90;;;;;;6030190;23;19928;-90
2022/04/04 13:55:43;;;;;;;;;;;13.10;99.90;;;;;;6027047;23;20209;-90
2022/04/04 13:58:13;;;;;;;;;;;13.20;99.90;;;;;;6067288;23;19921;-89
2022/04/04 14:00:44;;;;;;;;;;;13.30;99.90;;;;;;6068236;23;19914;-93
2022/04/04 14:03:20;;;;;;;;;;;13.40;99.90;;;;;;6059887;23;20113;-89
2022/04/04 14:05:56;;;;;;;;;;;13.70;99.90;;;;;;6087527;23;19932;-90
2022/04/04 14:08:26;;;;;;;;;;;14.00;99.90;;;;;;6063726;23;19952;-89
2022/04/04 14:11:01;;;;;;;;;;;13.90;99.90;;;;;;6061470;23;19925;-89
2022/04/04 14:13:38;;;;;;;;;;;14.00;99.90;;;;;;6112320;23;19928;-91
2022/04/04 14:16:07;;;;;;;;;;;14.10;99.90;;;;;;6082527;23;19921;-90
2022/04/04 14:18:36;;;;;;;;;;;14.20;99.90;;;;;;6033113;23;19921;-89
2022/04/04 14:21:04;;;;;;;;;;;14.20;99.90;;;;;;6102282;23;19948;-89
2022/04/04 14:23:37;;;;;;;;;;;14.30;99.90;;;;;;6029366;23;19923;-90
2022/04/04 14:26:06;;;;;;;;;;;14.40;99.90;;;;;;6055060;23;19925;-90
2022/04/04 14:28:34;;;;;;;;;;;14.40;99.90;;;;;;6031765;23;19925;-89
2022/04/04 14:31:04;;;;;;;;;;;14.50;99.90;;;;;;6057407;23;19932;-89
2022/04/04 14:33:33;;;;;;;;;;;14.20;99.90;;;;;;6085471;23;19922;-90
2022/04/04 14:36:04;;;;;;;;;;;14.60;99.90;;;;;;6086230;23;19928;-91
2022/04/04 14:38:45;;;;;;;;;;;14.60;99.90;;;;;;6084797;23;19925;-90
2022/04/04 14:41:19;;;;;;;;;;;14.50;99.90;;;;;;6061557;23;19936;-90
2022/04/04 14:43:54;;;;;;;;;;;14.50;99.90;;;;;;6065130;23;19921;-90
2022/04/04 14:46:23;;;;;;;;;;;14.50;99.90;;;;;;6057696;23;19923;-89
2022/04/04 14:48:55;;;;;;;;;;;14.50;99.90;;;;;;6107873;23;19928;-89
2022/04/04 14:51:24;;;;;;;;;;;14.40;99.90;;;;;;6053694;23;19921;-90
2022/04/04 14:53:57;;;;;;;;;;;14.40;99.90;;;;;;6033018;23;19921;-90
2022/04/04 14:56:28;;;;;;;;;;;14.30;99.90;;;;;;6057461;23;19931;-89
2022/04/04 14:58:59;;;;;;;;;;;14.40;99.90;;;;;;6055605;23;20348;-90
2022/04/04 15:01:36;;;;;;;;;;;14.30;99.90;;;;;;6058319;23;20256;-92
2022/04/04 15:04:06;;;;;;;;;;;14.40;99.90;;;;;;6055891;23;19921;-90
2022/04/04 15:06:34;;;;;;;;;;;14.40;99.90;;;;;;6105286;23;19922;-88
2022/04/04 15:09:09;;;;;;;;;;;14.40;99.90;;;;;;6057889;23;19921;-89
2022/04/04 15:11:37;;;;;;;;;;;14.40;99.90;;;;;;6081227;23;20350;-88
2022/04/04 15:14:06;;;;;;;;;;;14.40;99.90;;;;;;6078035;23;19921;-90
2022/04/04 15:16:38;;;;;;;;;;;14.40;99.90;;;;;;6075583;23;19927;-89
2022/04/04 15:19:06;;;;;;;;;;;14.60;99.90;;;;;;6083304;23;20020;-90
2022/04/04 15:21:38;;;;;;;;;;;14.40;99.90;;;;;;6081430;23;19924;-89
2022/04/04 15:24:07;;;;;;;;;;;14.50;99.90;;;;;;6057545;23;19921;-90
2022/04/04 15:26:47;;;;;;;;;;;14.50;99.90;;;;;;6084491;23;19921;-91
2022/04/04 15:29:15;;;;;;;;;;;14.40;99.90;;;;;;6078747;23;19928;-90
2022/04/04 15:31:44;;;;;;;;;;;14.50;99.90;;;;;;6089232;23;19921;-91